Time;durP1;ratioP1;P1;durP2;ratioP2;P2;SDS_P1;SDS_P2;PMS_P1;PMS_P2;Temp;Humidity;BMP_temperature;BMP_pressure;BME280_temperature;BME280_humidity;BME280_pressure;Samples;Min_cycle;Max_cycle;Signal;HPM_P1;HPM_P2
2022/07/17 00:01:59;;;;;;;5.47;2.30;;;;;;;;;;5020296;28;20209;-70
2022/07/17 00:04:24;;;;;;;8.65;2.60;;;;;;;;;;5026518;28;20225;-70
2022/07/17 00:06:50;;;;;;;11.20;3.17;;;;;;;;;;5026823;28;20182;-70
2022/07/17 00:09:15;;;;;;;6.00;3.08;;;;;;;;;;5017429;28;20202;-70
2022/07/17 00:11:41;;;;;;;9.40;2.50;;;;;;;;;;5021645;28;20218;-70
2022/07/17 00:14:06;;;;;;;7.60;2.42;;;;;;;;;;5027387;28;20194;-70
2022/07/17 00:16:32;;;;;;;8.70;2.83;;;;;;;;;;5015749;28;20175;-70
2022/07/17 00:18:57;;;;;;;12.20;2.70;;;;;;;;;;5022042;28;20529;-71
2022/07/17 00:21:22;;;;;;;9.00;2.65;;;;;;;;;;5024882;28;20652;-70
2022/07/17 00:23:48;;;;;;;7.45;2.90;;;;;;;;;;5019198;28;20187;-70
2022/07/17 00:26:13;;;;;;;7.82;2.83;;;;;;;;;;5021559;28;20186;-70
2022/07/17 00:28:38;;;;;;;5.85;2.67;;;;;;;;;;5015569;28;20175;-70
2022/07/17 00:31:04;;;;;;;5.47;2.70;;;;;;;;;;5019581;28;20645;-70
2022/07/17 00:33:29;;;;;;;4.75;2.42;;;;;;;;;;5028285;28;20285;-70
2022/07/17 00:35:55;;;;;;;7.90;3.20;;;;;;;;;;5020885;28;20534;-70
2022/07/17 00:38:20;;;;;;;7.22;2.85;;;;;;;;;;5017966;28;20604;-70
2022/07/17 00:40:45;;;;;;;5.40;2.75;;;;;;;;;;5023256;28;20182;-70
2022/07/17 00:43:11;;;;;;;8.57;3.20;;;;;;;;;;5023202;28;20199;-70
2022/07/17 00:45:36;;;;;;;6.07;2.72;;;;;;;;;;5019757;28;20181;-70
2022/07/17 00:48:04;;;;;;;9.30;2.42;;;;;;;;;;5019177;28;20273;-70
2022/07/17 00:50:39;;;;;;;8.68;2.78;;;;;;;;;;5022169;28;20202;-70
2022/07/17 00:53:06;;;;;;;8.55;2.90;;;;;;;;;;5024946;28;20246;-71
2022/07/17 00:55:32;;;;;;;7.07;2.65;;;;;;;;;;5018482;28;20228;-70
2022/07/17 00:58:01;;;;;;;11.52;2.90;;;;;;;;;;5026448;28;20575;-70
2022/07/17 01:00:27;;;;;;;6.43;3.00;;;;;;;;;;5021945;28;20647;-71
2022/07/17 01:02:53;;;;;;;7.95;3.03;;;;;;;;;;5015828;28;20860;-71
2022/07/17 01:05:21;;;;;;;5.88;3.28;;;;;;;;;;5035061;28;20647;-71
2022/07/17 01:07:47;;;;;;;7.43;3.15;;;;;;;;;;5025344;28;20264;-70
2022/07/17 01:10:16;;;;;;;6.78;3.35;;;;;;;;;;5027557;28;20218;-71
2022/07/17 01:12:41;;;;;;;8.05;3.30;;;;;;;;;;5010921;28;20210;-71
2022/07/17 01:15:09;;;;;;;4.90;3.15;;;;;;;;;;5028602;28;20249;-71
2022/07/17 01:17:35;;;;;;;8.80;3.40;;;;;;;;;;5019184;28;20495;-72
2022/07/17 01:20:02;;;;;;;9.35;2.97;;;;;;;;;;5016183;28;20258;-71
2022/07/17 01:22:28;;;;;;;10.82;3.33;;;;;;;;;;5024897;28;20284;-71
2022/07/17 01:24:53;;;;;;;7.10;3.03;;;;;;;;;;5015007;28;20675;-69
2022/07/17 01:27:18;;;;;;;7.78;3.58;;;;;;;;;;5016910;28;20188;-70
2022/07/17 01:29:44;;;;;;;6.30;3.17;;;;;;;;;;5024472;28;20226;-70
2022/07/17 01:32:10;;;;;;;7.47;2.95;;;;;;;;;;5025157;28;20240;-71
2022/07/17 01:34:35;;;;;;;7.30;3.15;;;;;;;;;;5020859;28;20549;-69
2022/07/17 01:37:00;;;;;;;10.77;3.28;;;;;;;;;;5037462;28;20193;-71
2022/07/17 01:42:10;;;;;;;8.73;4.00;;;;;;;;;;5026428;28;20208;-71
2022/07/17 01:44:35;;;;;;;6.25;3.47;;;;;;;;;;5021419;28;20186;-71
2022/07/17 01:47:01;;;;;;;9.45;4.05;;;;;;;;;;5024551;28;20266;-70
2022/07/17 01:49:26;;;;;;;7.57;3.30;;;;;;;;;;5023975;28;20189;-70
2022/07/17 01:51:52;;;;;;;7.55;3.58;;;;;;;;;;5032760;28;20224;-70
2022/07/17 01:54:17;;;;;;;7.03;3.85;;;;;;;;;;5027560;28;20197;-70
2022/07/17 01:56:42;;;;;;;7.88;3.53;;;;;;;;;;5015601;28;20185;-70
2022/07/17 01:59:08;;;;;;;8.65;3.65;;;;;;;;;;5020511;28;20189;-70
2022/07/17 02:01:33;;;;;;;6.80;3.38;;;;;;;;;;5021172;28;20248;-70
2022/07/17 02:03:59;;;;;;;8.68;3.20;;;;;;;;;;5028368;28;20193;-71
2022/07/17 02:06:24;;;;;;;10.15;3.97;;;;;;;;;;5021671;28;20197;-71
2022/07/17 02:08:50;;;;;;;5.82;3.35;;;;;;;;;;5016492;28;20214;-71
2022/07/17 02:11:16;;;;;;;9.75;3.60;;;;;;;;;;5024344;28;20199;-71
2022/07/17 02:13:42;;;;;;;8.32;4.35;;;;;;;;;;5040266;28;20583;-72
2022/07/17 02:16:07;;;;;;;6.78;3.80;;;;;;;;;;5029755;28;20185;-71
2022/07/17 02:18:34;;;;;;;13.02;4.03;;;;;;;;;;5019853;28;20182;-71
2022/07/17 02:20:59;;;;;;;12.02;4.97;;;;;;;;;;5030065;28;20582;-71
2022/07/17 02:23:25;;;;;;;7.82;4.03;;;;;;;;;;5031662;28;20181;-71
2022/07/17 02:25:50;;;;;;;8.57;3.92;;;;;;;;;;5035070;28;20230;-71
2022/07/17 02:28:15;;;;;;;9.93;3.92;;;;;;;;;;5030921;28;20687;-71
2022/07/17 02:30:41;;;;;;;7.97;3.92;;;;;;;;;;5024002;28;20249;-71
2022/07/17 02:33:06;;;;;;;8.85;3.90;;;;;;;;;;5024229;28;20288;-71
2022/07/17 02:35:32;;;;;;;8.18;3.85;;;;;;;;;;5033274;28;20182;-71
2022/07/17 02:37:58;;;;;;;8.85;4.28;;;;;;;;;;5022784;28;20226;-71
2022/07/17 02:40:23;;;;;;;9.55;4.13;;;;;;;;;;5029073;28;20205;-72
2022/07/17 02:42:48;;;;;;;10.93;3.75;;;;;;;;;;5025771;28;20178;-70
2022/07/17 02:45:14;;;;;;;6.85;4.10;;;;;;;;;;5029052;28;20190;-71
2022/07/17 02:47:39;;;;;;;8.75;3.97;;;;;;;;;;5020945;28;20181;-71
2022/07/17 02:50:06;;;;;;;5.47;3.90;;;;;;;;;;5031954;28;20312;-71
2022/07/17 02:52:32;;;;;;;6.47;3.78;;;;;;;;;;5029557;28;20209;-72
2022/07/17 02:54:57;;;;;;;9.00;3.88;;;;;;;;;;5032925;28;20190;-69
2022/07/17 02:57:23;;;;;;;7.18;4.00;;;;;;;;;;5034733;28;20547;-71
2022/07/17 02:59:48;;;;;;;5.68;3.38;;;;;;;;;;5040391;28;20204;-70
2022/07/17 03:02:14;;;;;;;6.05;3.63;;;;;;;;;;5034731;28;20207;-70
2022/07/17 03:04:39;;;;;;;7.47;3.70;;;;;;;;;;5038725;28;20186;-70
2022/07/17 03:07:05;;;;;;;5.65;3.50;;;;;;;;;;5038163;28;20630;-71
2022/07/17 03:09:30;;;;;;;9.15;3.63;;;;;;;;;;5045097;28;20570;-71
2022/07/17 03:11:56;;;;;;;7.20;3.83;;;;;;;;;;5027728;28;20222;-71
2022/07/17 03:14:21;;;;;;;6.45;3.83;;;;;;;;;;5024913;28;20193;-71
2022/07/17 03:16:47;;;;;;;6.78;3.47;;;;;;;;;;5028298;28;20178;-71
2022/07/17 03:19:12;;;;;;;5.25;3.67;;;;;;;;;;5023691;28;20621;-71
2022/07/17 03:21:37;;;;;;;6.30;4.00;;;;;;;;;;5030428;28;20170;-71
2022/07/17 03:24:04;;;;;;;8.85;4.57;;;;;;;;;;5038291;28;20186;-71
2022/07/17 03:26:29;;;;;;;9.13;4.18;;;;;;;;;;5031251;28;20553;-71
2022/07/17 03:28:54;;;;;;;5.40;3.90;;;;;;;;;;5026210;28;20261;-72
2022/07/17 03:31:20;;;;;;;6.65;4.53;;;;;;;;;;5031031;28;20214;-71
2022/07/17 03:33:45;;;;;;;7.50;3.85;;;;;;;;;;5039672;28;20185;-70
2022/07/17 03:36:10;;;;;;;5.55;3.88;;;;;;;;;;5036010;28;20264;-70
2022/07/17 03:38:36;;;;;;;7.20;4.30;;;;;;;;;;5040879;28;20222;-71
2022/07/17 03:41:01;;;;;;;10.23;5.07;;;;;;;;;;5034602;28;20723;-71
2022/07/17 03:43:26;;;;;;;6.68;4.47;;;;;;;;;;5026813;28;20182;-71
2022/07/17 03:45:52;;;;;;;11.48;5.05;;;;;;;;;;5028300;28;20225;-71
2022/07/17 03:48:18;;;;;;;6.25;4.85;;;;;;;;;;5031442;28;20673;-71
2022/07/17 03:50:43;;;;;;;7.43;4.68;;;;;;;;;;5028528;28;20504;-72
2022/07/17 03:53:09;;;;;;;10.68;4.25;;;;;;;;;;5027045;28;20214;-72
2022/07/17 03:55:35;;;;;;;6.32;4.63;;;;;;;;;;5028103;28;20190;-72
2022/07/17 03:58:00;;;;;;;7.57;4.65;;;;;;;;;;5024364;28;20253;-72
2022/07/17 04:00:26;;;;;;;9.02;4.63;;;;;;;;;;5037673;28;20209;-72
2022/07/17 04:02:51;;;;;;;6.20;4.80;;;;;;;;;;5027599;28;20181;-72
2022/07/17 04:05:17;;;;;;;8.85;5.18;;;;;;;;;;5016685;28;20186;-71
2022/07/17 04:07:43;;;;;;;7.25;4.15;;;;;;;;;;5013034;28;20186;-71
2022/07/17 04:10:10;;;;;;;8.35;4.95;;;;;;;;;;5021046;28;20269;-72
2022/07/17 04:12:36;;;;;;;7.50;4.82;;;;;;;;;;5022950;28;20288;-72
2022/07/17 04:15:02;;;;;;;11.43;4.65;;;;;;;;;;5022455;28;20191;-71
2022/07/17 04:17:28;;;;;;;6.22;4.20;;;;;;;;;;5013957;28;20639;-71
2022/07/17 04:19:53;;;;;;;7.40;4.78;;;;;;;;;;5040675;28;20320;-72
2022/07/17 04:22:19;;;;;;;7.47;4.22;;;;;;;;;;5027549;28;20186;-72
2022/07/17 04:24:45;;;;;;;7.82;4.82;;;;;;;;;;5045372;28;20193;-72
2022/07/17 04:27:11;;;;;;;10.95;4.78;;;;;;;;;;5014546;28;20185;-72
2022/07/17 04:29:36;;;;;;;7.93;4.25;;;;;;;;;;5034528;28;20257;-71
2022/07/17 04:32:03;;;;;;;4.88;4.35;;;;;;;;;;5018979;28;20238;-72
2022/07/17 04:34:29;;;;;;;7.28;4.68;;;;;;;;;;5028779;28;20642;-71
2022/07/17 04:36:55;;;;;;;8.25;4.22;;;;;;;;;;5020186;28;20194;-71
2022/07/17 04:39:20;;;;;;;8.38;3.85;;;;;;;;;;5025231;28;20232;-71
2022/07/17 04:41:46;;;;;;;9.50;4.47;;;;;;;;;;5026495;28;20200;-71
2022/07/17 04:44:11;;;;;;;7.03;4.35;;;;;;;;;;5026299;28;20186;-72
2022/07/17 04:46:36;;;;;;;6.70;4.43;;;;;;;;;;5024965;28;20573;-71
2022/07/17 04:49:02;;;;;;;5.43;4.38;;;;;;;;;;5018898;28;20243;-71
2022/07/17 04:51:27;;;;;;;7.18;4.57;;;;;;;;;;5027938;28;20317;-71
2022/07/17 04:53:52;;;;;;;9.07;4.72;;;;;;;;;;5021485;28;20183;-71
2022/07/17 04:56:20;;;;;;;7.30;4.65;;;;;;;;;;5025947;28;20186;-71
2022/07/17 04:58:45;;;;;;;7.22;4.25;;;;;;;;;;5028161;28;20233;-71
2022/07/17 05:01:10;;;;;;;9.10;4.10;;;;;;;;;;5028082;28;20170;-72
2022/07/17 05:03:37;;;;;;;8.85;4.75;;;;;;;;;;5024414;28;20190;-73
2022/07/17 05:06:03;;;;;;;6.60;4.45;;;;;;;;;;5021168;28;20178;-71
2022/07/17 05:08:28;;;;;;;6.95;4.43;;;;;;;;;;5024265;28;20292;-71
2022/07/17 05:10:54;;;;;;;7.25;4.70;;;;;;;;;;5035934;28;20220;-72
2022/07/17 05:13:19;;;;;;;8.05;4.70;;;;;;;;;;5029843;28;20182;-72
2022/07/17 05:15:44;;;;;;;8.63;4.50;;;;;;;;;;5036206;28;20181;-71
2022/07/17 05:18:10;;;;;;;6.65;4.40;;;;;;;;;;5031341;28;20313;-71
2022/07/17 05:20:35;;;;;;;7.10;4.50;;;;;;;;;;5043974;28;20213;-72
2022/07/17 05:23:00;;;;;;;7.43;4.90;;;;;;;;;;5031549;28;20273;-72
2022/07/17 05:25:26;;;;;;;7.03;4.45;;;;;;;;;;5021515;28;20213;-72
2022/07/17 05:27:51;;;;;;;7.05;4.22;;;;;;;;;;5027762;28;20232;-71
2022/07/17 05:30:17;;;;;;;5.30;4.30;;;;;;;;;;5041716;28;20222;-71
2022/07/17 05:32:42;;;;;;;7.45;4.03;;;;;;;;;;5042137;28;20216;-71
2022/07/17 05:35:08;;;;;;;6.43;4.72;;;;;;;;;;5040930;28;20684;-70
2022/07/17 05:37:33;;;;;;;9.93;4.95;;;;;;;;;;5035251;28;20273;-72
2022/07/17 05:39:59;;;;;;;11.43;5.03;;;;;;;;;;5036685;28;20189;-72
2022/07/17 05:42:24;;;;;;;12.00;4.63;;;;;;;;;;5041315;28;20275;-73
2022/07/17 05:44:49;;;;;;;8.70;4.40;;;;;;;;;;5040895;28;20239;-72
2022/07/17 05:47:15;;;;;;;7.57;3.85;;;;;;;;;;5042219;28;20190;-72
2022/07/17 05:49:40;;;;;;;8.30;4.10;;;;;;;;;;5028576;28;20185;-71
2022/07/17 05:52:06;;;;;;;8.82;4.10;;;;;;;;;;5040211;28;20734;-72
2022/07/17 05:54:35;;;;;;;5.70;3.80;;;;;;;;;;5037693;28;20181;-72
2022/07/17 05:57:01;;;;;;;9.77;3.58;;;;;;;;;;5037078;28;20590;-70
2022/07/17 05:59:26;;;;;;;6.88;3.15;;;;;;;;;;5042559;28;20283;-71
2022/07/17 06:01:52;;;;;;;7.80;2.83;;;;;;;;;;5039676;28;20729;-71
2022/07/17 06:04:17;;;;;;;9.15;3.30;;;;;;;;;;5034818;28;20184;-72
2022/07/17 06:06:42;;;;;;;9.77;3.13;;;;;;;;;;5042947;28;20509;-72
2022/07/17 06:09:08;;;;;;;6.82;3.10;;;;;;;;;;5043531;28;20189;-72
2022/07/17 06:11:33;;;;;;;5.47;3.15;;;;;;;;;;5039886;28;20698;-72
2022/07/17 06:13:59;;;;;;;8.48;2.92;;;;;;;;;;5040621;28;20588;-72
2022/07/17 06:16:24;;;;;;;6.28;2.90;;;;;;;;;;5043515;28;20216;-71
2022/07/17 06:18:49;;;;;;;6.80;3.10;;;;;;;;;;5046300;28;20196;-71
2022/07/17 06:21:15;;;;;;;9.18;3.13;;;;;;;;;;5034871;28;20217;-71
2022/07/17 06:23:40;;;;;;;7.50;3.00;;;;;;;;;;5032863;28;20208;-71
2022/07/17 06:26:05;;;;;;;6.20;3.20;;;;;;;;;;5041105;28;20181;-71
2022/07/17 06:28:31;;;;;;;8.45;3.33;;;;;;;;;;5038756;28;21017;-71
2022/07/17 06:30:56;;;;;;;8.45;3.33;;;;;;;;;;5044257;28;20225;-72
2022/07/17 06:33:22;;;;;;;9.20;3.25;;;;;;;;;;5030509;28;20182;-72
2022/07/17 06:35:49;;;;;;;8.63;3.40;;;;;;;;;;5040641;28;20212;-72
2022/07/17 06:38:15;;;;;;;6.63;3.20;;;;;;;;;;5034603;28;20190;-72
2022/07/17 06:40:40;;;;;;;11.57;3.00;;;;;;;;;;5042014;28;20740;-73
2022/07/17 06:43:06;;;;;;;9.70;3.47;;;;;;;;;;5042279;28;20632;-72
2022/07/17 06:45:32;;;;;;;9.73;3.17;;;;;;;;;;5042317;28;20216;-72
2022/07/17 06:47:57;;;;;;;10.52;3.33;;;;;;;;;;5041464;28;20625;-72
2022/07/17 06:50:22;;;;;;;8.55;2.45;;;;;;;;;;5045268;28;20177;-72
2022/07/17 06:52:48;;;;;;;5.75;1.95;;;;;;;;;;5039180;28;20635;-71
2022/07/17 06:55:13;;;;;;;9.40;1.92;;;;;;;;;;5035155;28;20178;-70
2022/07/17 06:57:39;;;;;;;6.28;1.50;;;;;;;;;;5037049;28;20445;-71
2022/07/17 07:00:05;;;;;;;5.38;2.38;;;;;;;;;;5045910;28;20653;-72
2022/07/17 07:02:30;;;;;;;10.50;2.05;;;;;;;;;;5041176;28;20178;-70
2022/07/17 07:04:55;;;;;;;6.55;1.35;;;;;;;;;;5035863;28;20573;-71
2022/07/17 07:07:20;;;;;;;9.77;1.70;;;;;;;;;;5040607;28;20553;-70
2022/07/17 07:09:46;;;;;;;8.35;2.17;;;;;;;;;;5035474;28;20181;-69
2022/07/17 07:12:11;;;;;;;7.15;1.83;;;;;;;;;;5042432;28;20250;-72
2022/07/17 07:14:36;;;;;;;7.55;1.70;;;;;;;;;;5039696;28;20696;-72
2022/07/17 07:17:02;;;;;;;5.32;1.08;;;;;;;;;;5015122;28;20630;-73
2022/07/17 07:19:27;;;;;;;6.75;1.38;;;;;;;;;;5040969;28;20272;-71
2022/07/17 07:21:52;;;;;;;2.65;0.98;;;;;;;;;;5035267;28;20183;-71
2022/07/17 07:24:18;;;;;;;4.95;1.23;;;;;;;;;;5042711;28;20181;-72
2022/07/17 07:26:44;;;;;;;3.05;0.98;;;;;;;;;;5033666;28;20190;-71
2022/07/17 07:29:09;;;;;;;5.90;1.15;;;;;;;;;;5033428;28;20186;-72
2022/07/17 07:31:34;;;;;;;8.80;1.20;;;;;;;;;;5033344;28;20223;-75
2022/07/17 07:34:00;;;;;;;5.78;1.45;;;;;;;;;;5036291;28;20189;-72
2022/07/17 07:36:25;;;;;;;3.60;0.93;;;;;;;;;;5031348;28;20181;-71
2022/07/17 07:38:50;;;;;;;5.72;1.52;;;;;;;;;;5038037;28;20292;-71
2022/07/17 07:41:16;;;;;;;6.25;1.27;;;;;;;;;;5035264;28;20264;-71
2022/07/17 07:43:41;;;;;;;7.50;1.30;;;;;;;;;;5037444;28;20185;-71
2022/07/17 07:46:07;;;;;;;6.97;1.20;;;;;;;;;;5041772;28;20181;-71
2022/07/17 07:48:32;;;;;;;6.45;1.00;;;;;;;;;;5036030;28;20208;-69
2022/07/17 07:50:58;;;;;;;6.75;1.00;;;;;;;;;;5035520;28;20179;-70
2022/07/17 07:53:23;;;;;;;6.28;1.10;;;;;;;;;;5037648;28;20182;-69
2022/07/17 07:55:49;;;;;;;5.45;1.33;;;;;;;;;;5022057;28;20189;-72
2022/07/17 07:58:14;;;;;;;2.83;1.02;;;;;;;;;;5027452;28;20193;-71
2022/07/17 08:00:43;;;;;;;3.25;0.93;;;;;;;;;;5024496;28;20175;-69
2022/07/17 08:03:09;;;;;;;5.40;1.13;;;;;;;;;;5031629;28;20185;-71
2022/07/17 08:05:34;;;;;;;5.05;1.27;;;;;;;;;;5045723;28;20243;-70
2022/07/17 08:08:00;;;;;;;7.15;1.58;;;;;;;;;;5030350;28;20192;-71
2022/07/17 08:10:26;;;;;;;3.65;1.00;;;;;;;;;;5036675;28;20206;-71
2022/07/17 08:12:51;;;;;;;4.63;0.85;;;;;;;;;;5042844;28;20297;-70
2022/07/17 08:15:19;;;;;;;4.47;1.10;;;;;;;;;;5041331;28;20181;-69
2022/07/17 08:17:46;;;;;;;4.57;1.08;;;;;;;;;;5032092;28;20189;-69
2022/07/17 08:20:13;;;;;;;5.05;0.95;;;;;;;;;;5031610;28;20389;-70
2022/07/17 08:22:39;;;;;;;4.85;0.80;;;;;;;;;;5033278;28;20171;-71
2022/07/17 08:25:04;;;;;;;4.18;1.10;;;;;;;;;;5028441;28;20182;-69
2022/07/17 08:27:37;;;;;;;6.07;0.95;;;;;;;;;;5036418;28;20280;-70
2022/07/17 08:30:04;;;;;;;6.93;1.75;;;;;;;;;;5040397;28;20220;-69
2022/07/17 08:32:30;;;;;;;6.40;0.80;;;;;;;;;;5039119;28;20209;-68
2022/07/17 08:34:55;;;;;;;3.15;1.38;;;;;;;;;;5042218;28;20185;-69
2022/07/17 08:37:20;;;;;;;6.00;0.80;;;;;;;;;;5023607;28;20182;-70
2022/07/17 08:39:46;;;;;;;5.75;0.80;;;;;;;;;;5019703;28;20174;-70
2022/07/17 08:42:15;;;;;;;4.07;1.05;;;;;;;;;;5025621;28;20178;-71
2022/07/17 08:44:41;;;;;;;6.60;1.45;;;;;;;;;;5025898;28;20622;-72
2022/07/17 08:47:07;;;;;;;3.55;0.93;;;;;;;;;;5029669;28;20205;-71
2022/07/17 08:49:35;;;;;;;4.70;1.10;;;;;;;;;;5034159;28;20818;-70
2022/07/17 08:52:01;;;;;;;7.28;1.75;;;;;;;;;;5041969;28;20225;-75
2022/07/17 08:54:26;;;;;;;5.20;1.10;;;;;;;;;;5039301;28;20544;-71
2022/07/17 08:56:51;;;;;;;4.53;1.33;;;;;;;;;;5035133;28;20268;-70
2022/07/17 08:59:17;;;;;;;6.72;1.30;;;;;;;;;;5038293;28;20211;-72
2022/07/17 09:01:42;;;;;;;2.22;0.90;;;;;;;;;;5038474;28;20260;-71
2022/07/17 09:04:09;;;;;;;5.28;1.27;;;;;;;;;;5040975;28;20802;-71
2022/07/17 09:06:36;;;;;;;2.75;1.00;;;;;;;;;;5040716;28;20758;-72
2022/07/17 09:09:05;;;;;;;5.43;1.15;;;;;;;;;;5038664;28;20204;-74
2022/07/17 09:11:42;;;;;;;5.28;1.00;;;;;;;;;;5029855;28;20440;-74
2022/07/17 09:14:08;;;;;;;6.45;0.90;;;;;;;;;;5016411;28;20191;-71
2022/07/17 09:16:35;;;;;;;5.03;0.93;;;;;;;;;;5028128;28;20651;-70
2022/07/17 09:19:01;;;;;;;5.85;1.33;;;;;;;;;;5022255;28;20233;-71
2022/07/17 09:21:28;;;;;;;4.82;1.35;;;;;;;;;;5021496;28;20190;-71
2022/07/17 09:24:06;;;;;;;1.70;0.63;;;;;;;;;;5035271;28;20186;-71
2022/07/17 09:26:37;;;;;;;3.25;1.00;;;;;;;;;;5034040;28;20182;-71
2022/07/17 09:29:03;;;;;;;7.22;1.05;;;;;;;;;;5026435;28;20275;-72
2022/07/17 09:31:30;;;;;;;6.80;1.20;;;;;;;;;;5022754;28;20234;-72
2022/07/17 09:33:56;;;;;;;3.13;1.17;;;;;;;;;;5024591;28;20637;-74
2022/07/17 09:36:22;;;;;;;5.70;1.05;;;;;;;;;;5024979;28;20174;-73
2022/07/17 09:38:51;;;;;;;8.73;1.27;;;;;;;;;;5024766;28;20174;-71
2022/07/17 09:41:20;;;;;;;3.22;1.02;;;;;;;;;;5023440;28;20197;-72
2022/07/17 09:43:54;;;;;;;5.22;1.10;;;;;;;;;;5019244;28;20198;-71
2022/07/17 09:46:27;;;;;;;6.75;1.20;;;;;;;;;;5032571;28;20558;-69
2022/07/17 09:48:56;;;;;;;7.70;1.70;;;;;;;;;;5039280;28;20578;-72
2022/07/17 09:51:29;;;;;;;2.40;1.00;;;;;;;;;;5026167;28;20210;-72
2022/07/17 09:53:57;;;;;;;3.88;1.23;;;;;;;;;;5046127;28;20272;-72
2022/07/17 09:56:25;;;;;;;6.15;1.05;;;;;;;;;;5030832;28;20205;-72
2022/07/17 09:58:57;;;;;;;5.55;1.08;;;;;;;;;;5014566;28;20209;-72
2022/07/17 10:01:22;;;;;;;6.40;1.10;;;;;;;;;;5037879;28;20177;-73
2022/07/17 10:03:50;;;;;;;4.50;0.90;;;;;;;;;;5029495;28;20631;-76
2022/07/17 10:06:15;;;;;;;3.13;0.90;;;;;;;;;;5020426;28;20182;-70
2022/07/17 10:08:41;;;;;;;6.70;0.90;;;;;;;;;;5023755;28;20189;-72
2022/07/17 10:11:10;;;;;;;4.45;0.90;;;;;;;;;;5026814;28;20248;-73
2022/07/17 10:13:41;;;;;;;2.92;0.88;;;;;;;;;;5029544;28;20223;-69
2022/07/17 10:16:07;;;;;;;4.97;1.30;;;;;;;;;;5029742;28;20285;-74
2022/07/17 10:18:34;;;;;;;5.55;1.02;;;;;;;;;;5027036;28;20220;-72
2022/07/17 10:21:10;;;;;;;7.70;1.17;;;;;;;;;;5019214;28;20268;-73
2022/07/17 10:23:36;;;;;;;6.47;1.00;;;;;;;;;;5038189;28;20313;-72
2022/07/17 10:26:02;;;;;;;4.13;1.00;;;;;;;;;;5031477;28;20582;-73
2022/07/17 10:28:45;;;;;;;2.75;1.00;;;;;;;;;;5036782;28;20177;-72
2022/07/17 10:31:23;;;;;;;4.55;1.48;;;;;;;;;;5030008;28;20264;-73
2022/07/17 10:33:59;;;;;;;4.45;0.98;;;;;;;;;;5028827;28;20673;-70
2022/07/17 10:36:35;;;;;;;4.72;1.02;;;;;;;;;;5022195;28;20274;-72
2022/07/17 10:39:14;;;;;;;3.05;0.93;;;;;;;;;;5040235;28;20197;-71
2022/07/17 10:41:40;;;;;;;4.25;1.00;;;;;;;;;;5026264;28;20174;-72
2022/07/17 10:44:05;;;;;;;3.97;1.00;;;;;;;;;;5031027;28;20688;-72
2022/07/17 10:46:30;;;;;;;3.88;0.85;;;;;;;;;;5028713;28;20173;-72
2022/07/17 10:48:56;;;;;;;3.63;1.10;;;;;;;;;;5029692;28;20579;-72
2022/07/17 10:51:24;;;;;;;4.72;1.08;;;;;;;;;;5030853;28;20584;-71
2022/07/17 10:53:50;;;;;;;5.80;1.30;;;;;;;;;;5040389;28;20642;-71
2022/07/17 10:56:17;;;;;;;3.65;1.15;;;;;;;;;;5022156;28;20192;-72
2022/07/17 10:58:43;;;;;;;5.20;1.10;;;;;;;;;;5033755;28;20186;-75
2022/07/17 11:01:14;;;;;;;2.88;1.35;;;;;;;;;;5031418;28;20184;-72
2022/07/17 11:03:44;;;;;;;3.45;0.98;;;;;;;;;;5039468;28;20221;-73
2022/07/17 11:06:18;;;;;;;4.15;1.25;;;;;;;;;;5045090;28;20208;-75
2022/07/17 11:09:00;;;;;;;2.67;0.90;;;;;;;;;;5045327;28;20683;-71
2022/07/17 11:11:48;;;;;;;2.38;0.73;;;;;;;;;;5040262;28;20193;-72
2022/07/17 11:14:20;;;;;;;3.50;0.80;;;;;;;;;;5041966;28;20193;-70
2022/07/17 11:17:01;;;;;;;2.40;1.02;;;;;;;;;;5030342;28;20280;-70
2022/07/17 11:19:27;;;;;;;2.17;0.70;;;;;;;;;;5032152;28;20242;-72
2022/07/17 11:21:55;;;;;;;5.05;1.00;;;;;;;;;;5032883;28;20178;-71
2022/07/17 11:24:20;;;;;;;3.13;1.10;;;;;;;;;;5026551;28;20209;-70
2022/07/17 11:26:49;;;;;;;2.78;0.82;;;;;;;;;;5026372;28;20208;-71
2022/07/17 11:29:14;;;;;;;3.95;0.80;;;;;;;;;;5035143;28;20645;-73
2022/07/17 11:31:40;;;;;;;4.13;1.00;;;;;;;;;;5034495;28;20218;-72
2022/07/17 11:34:08;;;;;;;2.17;0.70;;;;;;;;;;5032519;28;20174;-71
2022/07/17 11:36:40;;;;;;;3.50;0.77;;;;;;;;;;5034353;28;20304;-73
2022/07/17 11:39:18;;;;;;;4.07;0.90;;;;;;;;;;5021409;28;20183;-70
2022/07/17 11:41:50;;;;;;;3.53;0.73;;;;;;;;;;5028701;28;20182;-69
2022/07/17 11:44:18;;;;;;;4.18;0.90;;;;;;;;;;5027851;28;20181;-68
2022/07/17 11:46:46;;;;;;;3.63;0.80;;;;;;;;;;5029034;28;20174;-67
2022/07/17 11:49:24;;;;;;;1.88;0.75;;;;;;;;;;5043704;28;20192;-72
2022/07/17 11:51:49;;;;;;;3.70;0.80;;;;;;;;;;5021952;28;20607;-70
2022/07/17 11:54:16;;;;;;;1.92;0.73;;;;;;;;;;5032608;28;20193;-70
2022/07/17 11:56:50;;;;;;;6.85;0.88;;;;;;;;;;5023583;28;20183;-73
2022/07/17 11:59:24;;;;;;;3.08;0.70;;;;;;;;;;5041346;28;20199;-70
2022/07/17 12:01:50;;;;;;;3.90;0.80;;;;;;;;;;5022732;28;20510;-68
2022/07/17 12:04:15;;;;;;;3.83;0.82;;;;;;;;;;5022284;28;20181;-69
2022/07/17 12:06:41;;;;;;;1.90;0.52;;;;;;;;;;5022137;28;20553;-72
2022/07/17 12:09:07;;;;;;;3.38;0.93;;;;;;;;;;5026486;28;20622;-70
2022/07/17 12:11:44;;;;;;;3.28;1.08;;;;;;;;;;5028967;28;20503;-71
2022/07/17 12:14:10;;;;;;;1.75;1.02;;;;;;;;;;5028647;28;20539;-70
2022/07/17 12:16:36;;;;;;;3.72;1.00;;;;;;;;;;5040279;28;20180;-72
2022/07/17 12:19:11;;;;;;;2.03;0.63;;;;;;;;;;5034394;28;20188;-71
2022/07/17 12:21:59;;;;;;;2.05;0.95;;;;;;;;;;5030654;28;20197;-71
2022/07/17 12:24:30;;;;;;;1.50;0.75;;;;;;;;;;5040008;28;20579;-69
2022/07/17 12:26:57;;;;;;;3.80;0.73;;;;;;;;;;5040659;28;20185;-71
2022/07/17 12:29:23;;;;;;;4.15;0.90;;;;;;;;;;5038448;28;20645;-71
2022/07/17 12:31:59;;;;;;;1.63;0.75;;;;;;;;;;5041453;28;20682;-70
2022/07/17 12:34:24;;;;;;;3.90;0.95;;;;;;;;;;5039472;28;20259;-67
2022/07/17 12:36:50;;;;;;;6.50;1.00;;;;;;;;;;5038141;28;20593;-68
2022/07/17 12:39:15;;;;;;;1.17;0.55;;;;;;;;;;5042397;28;20735;-70
2022/07/17 12:41:40;;;;;;;1.27;0.70;;;;;;;;;;5038518;28;20703;-71
2022/07/17 12:44:05;;;;;;;3.35;0.90;;;;;;;;;;5037901;28;20698;-70
2022/07/17 12:46:31;;;;;;;2.35;0.80;;;;;;;;;;5037352;28;20217;-69
2022/07/17 12:48:56;;;;;;;4.15;0.70;;;;;;;;;;5039110;28;20177;-70
2022/07/17 12:51:22;;;;;;;2.22;0.88;;;;;;;;;;5037009;28;20314;-70
2022/07/17 12:53:47;;;;;;;2.22;0.77;;;;;;;;;;5041390;28;20189;-71
2022/07/17 12:56:12;;;;;;;2.38;0.85;;;;;;;;;;5035963;28;20240;-71
2022/07/17 12:58:38;;;;;;;2.10;0.80;;;;;;;;;;5037708;28;20212;-68
2022/07/17 13:01:04;;;;;;;3.92;0.90;;;;;;;;;;5041795;28;20696;-69
2022/07/17 13:03:30;;;;;;;4.88;0.98;;;;;;;;;;5036603;28;20212;-71
2022/07/17 13:05:55;;;;;;;5.30;0.90;;;;;;;;;;5044473;28;20181;-68
2022/07/17 13:08:21;;;;;;;4.93;0.70;;;;;;;;;;5043167;28;20192;-69
2022/07/17 13:10:46;;;;;;;2.50;0.63;;;;;;;;;;5040722;28;20191;-70
2022/07/17 13:13:12;;;;;;;4.13;0.90;;;;;;;;;;5042700;28;20251;-73
2022/07/17 13:15:37;;;;;;;2.92;0.70;;;;;;;;;;5039084;28;20701;-69
2022/07/17 13:18:02;;;;;;;3.95;1.25;;;;;;;;;;5040869;28;20517;-69
2022/07/17 13:20:29;;;;;;;2.13;0.90;;;;;;;;;;5041140;28;20260;-70
2022/07/17 13:22:54;;;;;;;3.20;1.10;;;;;;;;;;5042131;28;20177;-70
2022/07/17 13:25:20;;;;;;;2.95;1.10;;;;;;;;;;5038486;28;20465;-72
2022/07/17 13:27:45;;;;;;;2.92;0.90;;;;;;;;;;5038069;28;20586;-70
2022/07/17 13:30:11;;;;;;;3.83;1.10;;;;;;;;;;5041886;28;20414;-70
2022/07/17 13:32:37;;;;;;;3.55;0.77;;;;;;;;;;5035354;28;20217;-68
2022/07/17 13:35:02;;;;;;;4.38;1.10;;;;;;;;;;4691046;28;10000096;-72
2022/07/17 13:37:27;;;;;;;3.17;1.10;;;;;;;;;;5041292;28;20213;-71
2022/07/17 13:39:53;;;;;;;2.97;1.00;;;;;;;;;;5031624;28;20186;-70
2022/07/17 13:42:18;;;;;;;3.65;1.02;;;;;;;;;;5031316;28;20725;-70
2022/07/17 13:44:44;;;;;;;2.72;1.10;;;;;;;;;;5035844;28;20842;-75
2022/07/17 13:47:09;;;;;;;2.85;1.00;;;;;;;;;;5037965;28;20189;-71
2022/07/17 13:49:35;;;;;;;8.10;1.45;;;;;;;;;;5040857;28;20233;-71
2022/07/17 13:52:00;;;;;;;1.58;1.02;;;;;;;;;;5032950;28;21928;-70
2022/07/17 13:54:26;;;;;;;2.83;1.17;;;;;;;;;;5041836;28;20189;-69
2022/07/17 13:56:52;;;;;;;3.30;1.20;;;;;;;;;;5031142;28;20535;-71
2022/07/17 13:59:18;;;;;;;2.83;1.67;;;;;;;;;;5040464;28;20698;-69
2022/07/17 14:01:43;;;;;;;3.33;1.13;;;;;;;;;;5036387;28;20190;-68
2022/07/17 14:04:08;;;;;;;3.35;1.80;;;;;;;;;;5029199;28;20186;-71
2022/07/17 14:06:34;;;;;;;4.43;1.60;;;;;;;;;;5040213;28;20177;-71
2022/07/17 14:08:59;;;;;;;3.92;1.60;;;;;;;;;;5029942;28;20178;-70
2022/07/17 14:11:24;;;;;;;3.55;1.17;;;;;;;;;;5033457;28;20506;-72
2022/07/17 14:13:51;;;;;;;4.30;2.13;;;;;;;;;;5034773;28;20316;-69
2022/07/17 14:16:16;;;;;;;4.70;1.83;;;;;;;;;;5030913;28;20196;-70
2022/07/17 14:19:00;;;;;;;5.78;1.77;;;;;;;;;;5025869;28;20182;-71
2022/07/17 14:21:34;;;;;;;4.97;1.80;;;;;;;;;;5033031;28;20290;-70
2022/07/17 14:24:00;;;;;;;3.40;1.80;;;;;;;;;;5032870;28;20205;-68
2022/07/17 14:26:25;;;;;;;3.85;2.00;;;;;;;;;;5031247;28;20359;-68
2022/07/17 14:28:51;;;;;;;3.08;1.90;;;;;;;;;;5042281;28;20201;-71
2022/07/17 14:31:16;;;;;;;3.75;2.15;;;;;;;;;;5027043;28;20257;-70
2022/07/17 14:33:42;;;;;;;4.32;2.10;;;;;;;;;;5031129;28;20617;-69
2022/07/17 14:36:09;;;;;;;4.43;2.40;;;;;;;;;;5031187;28;20193;-71
2022/07/17 14:38:34;;;;;;;2.95;2.10;;;;;;;;;;5033656;28;20281;-69
2022/07/17 14:41:00;;;;;;;3.08;1.77;;;;;;;;;;5032390;28;20269;-70
2022/07/17 14:43:25;;;;;;;4.07;2.03;;;;;;;;;;5034864;28;20181;-70